sensor_id;sensor_type;location;lat;lon;timestamp;pressure;altitude;pressure_sealevel;temperature;humidity
36234;BME280;43467;50.890;5.982;2022-12-20T00:01:27;100132.19;;;13.58;62.59
36234;BME280;43467;50.890;5.982;2022-12-20T00:03:54;100119.59;;;13.61;62.39
36234;BME280;43467;50.890;5.982;2022-12-20T00:06:20;100109.31;;;13.55;62.42
36234;BME280;43467;50.890;5.982;2022-12-20T00:08:46;100114.72;;;13.54;62.40
36234;BME280;43467;50.890;5.982;2022-12-20T00:11:12;100128.00;;;13.54;62.47
36234;BME280;43467;50.890;5.982;2022-12-20T00:13:37;100119.09;;;13.55;62.63
36234;BME280;43467;50.890;5.982;2022-12-20T00:18:31;100135.44;;;13.48;62.53
36234;BME280;43467;50.890;5.982;2022-12-20T00:21:01;100133.97;;;13.43;62.80
36234;BME280;43467;50.890;5.982;2022-12-20T00:23:27;100131.72;;;13.51;62.43
36234;BME280;43467;50.890;5.982;2022-12-20T00:26:03;100135.03;;;13.55;62.36
36234;BME280;43467;50.890;5.982;2022-12-20T00:28:29;100132.38;;;13.55;62.48
36234;BME280;43467;50.890;5.982;2022-12-20T00:30:55;100127.84;;;13.57;62.51
36234;BME280;43467;50.890;5.982;2022-12-20T00:33:20;100125.59;;;13.65;62.22
36234;BME280;43467;50.890;5.982;2022-12-20T00:35:45;100109.03;;;13.60;62.33
36234;BME280;43467;50.890;5.982;2022-12-20T00:38:11;100112.94;;;13.68;62.30
36234;BME280;43467;50.890;5.982;2022-12-20T00:40:36;100099.34;;;13.59;62.45
36234;BME280;43467;50.890;5.982;2022-12-20T00:43:02;100102.19;;;13.56;62.52
36234;BME280;43467;50.890;5.982;2022-12-20T00:45:27;100090.75;;;13.54;62.73
36234;BME280;43467;50.890;5.982;2022-12-20T00:47:52;100102.19;;;13.56;62.36
36234;BME280;43467;50.890;5.982;2022-12-20T00:50:18;100109.91;;;13.60;62.51
36234;BME280;43467;50.890;5.982;2022-12-20T00:52:43;100089.75;;;13.56;62.24
36234;BME280;43467;50.890;5.982;2022-12-20T00:55:08;100100.13;;;13.61;62.47
36234;BME280;43467;50.890;5.982;2022-12-20T00:57:34;100085.94;;;13.60;62.15
36234;BME280;43467;50.890;5.982;2022-12-20T00:59:59;100082.25;;;13.63;62.52
36234;BME280;43467;50.890;5.982;2022-12-20T01:02:24;100080.63;;;13.60;62.20
36234;BME280;43467;50.890;5.982;2022-12-20T01:04:50;100080.53;;;13.62;62.38
36234;BME280;43467;50.890;5.982;2022-12-20T01:07:15;100084.53;;;13.69;62.33
36234;BME280;43467;50.890;5.982;2022-12-20T01:09:40;100097.06;;;13.67;62.61
36234;BME280;43467;50.890;5.982;2022-12-20T01:12:06;100090.88;;;13.66;62.99
36234;BME280;43467;50.890;5.982;2022-12-20T01:14:32;100091.09;;;13.63;63.51
36234;BME280;43467;50.890;5.982;2022-12-20T01:16:57;100094.94;;;13.58;63.61
36234;BME280;43467;50.890;5.982;2022-12-20T01:19:23;100092.88;;;13.63;63.47
36234;BME280;43467;50.890;5.982;2022-12-20T01:21:49;100096.94;;;13.54;63.77
36234;BME280;43467;50.890;5.982;2022-12-20T01:24:18;100103.13;;;13.55;64.03
36234;BME280;43467;50.890;5.982;2022-12-20T01:26:45;100102.81;;;13.45;63.87
36234;BME280;43467;50.890;5.982;2022-12-20T01:29:10;100096.81;;;13.41;64.17
36234;BME280;43467;50.890;5.982;2022-12-20T01:31:36;100092.56;;;13.39;64.18
36234;BME280;43467;50.890;5.982;2022-12-20T01:34:02;100087.97;;;13.41;64.20
36234;BME280;43467;50.890;5.982;2022-12-20T01:36:30;100090.47;;;13.44;64.30
36234;BME280;43467;50.890;5.982;2022-12-20T01:41:31;100080.19;;;13.38;64.49
36234;BME280;43467;50.890;5.982;2022-12-20T01:44:04;100066.31;;;13.33;64.46
36234;BME280;43467;50.890;5.982;2022-12-20T01:46:34;100057.44;;;13.18;64.99
36234;BME280;43467;50.890;5.982;2022-12-20T01:51:30;100070.81;;;13.17;65.15
36234;BME280;43467;50.890;5.982;2022-12-20T01:54:07;100064.38;;;13.21;65.16
36234;BME280;43467;50.890;5.982;2022-12-20T01:56:35;100068.59;;;13.09;65.51
36234;BME280;43467;50.890;5.982;2022-12-20T01:59:02;100066.75;;;13.11;65.74
36234;BME280;43467;50.890;5.982;2022-12-20T02:01:28;100056.53;;;13.03;65.50
36234;BME280;43467;50.890;5.982;2022-12-20T02:03:53;100065.50;;;13.17;65.57
36234;BME280;43467;50.890;5.982;2022-12-20T02:06:22;100055.72;;;13.17;65.49
36234;BME280;43467;50.890;5.982;2022-12-20T02:08:49;100056.78;;;13.15;65.60
36234;BME280;43467;50.890;5.982;2022-12-20T02:14:16;100050.94;;;13.08;65.63
36234;BME280;43467;50.890;5.982;2022-12-20T02:16:51;100050.63;;;12.98;65.96
36234;BME280;43467;50.890;5.982;2022-12-20T02:22:28;100066.34;;;12.87;66.95
36234;BME280;43467;50.890;5.982;2022-12-20T02:28:11;100059.53;;;12.97;66.81
36234;BME280;43467;50.890;5.982;2022-12-20T02:30:38;100070.28;;;12.96;67.16
36234;BME280;43467;50.890;5.982;2022-12-20T02:33:11;100068.63;;;12.93;67.76
36234;BME280;43467;50.890;5.982;2022-12-20T02:35:38;100053.09;;;13.01;67.45
36234;BME280;43467;50.890;5.982;2022-12-20T02:40:56;100034.88;;;12.80;67.92
36234;BME280;43467;50.890;5.982;2022-12-20T02:43:23;100050.91;;;12.78;68.44
36234;BME280;43467;50.890;5.982;2022-12-20T02:46:09;100052.22;;;12.71;68.71
36234;BME280;43467;50.890;5.982;2022-12-20T02:48:37;100051.38;;;12.71;68.84
36234;BME280;43467;50.890;5.982;2022-12-20T02:51:04;100052.28;;;12.70;68.83
36234;BME280;43467;50.890;5.982;2022-12-20T02:53:31;100062.13;;;12.68;68.86
36234;BME280;43467;50.890;5.982;2022-12-20T02:56:33;100054.28;;;12.66;69.01
36234;BME280;43467;50.890;5.982;2022-12-20T02:59:11;100045.72;;;12.61;69.12
36234;BME280;43467;50.890;5.982;2022-12-20T03:01:44;100045.78;;;12.59;69.29
36234;BME280;43467;50.890;5.982;2022-12-20T03:04:10;100040.56;;;12.58;69.93
36234;BME280;43467;50.890;5.982;2022-12-20T03:06:36;100045.88;;;12.58;69.93
36234;BME280;43467;50.890;5.982;2022-12-20T03:09:03;100046.75;;;12.58;69.99
36234;BME280;43467;50.890;5.982;2022-12-20T03:11:28;100042.38;;;12.57;69.74
36234;BME280;43467;50.890;5.982;2022-12-20T03:13:53;100042.38;;;12.57;71.16
36234;BME280;43467;50.890;5.982;2022-12-20T03:16:19;100039.03;;;12.54;71.37
36234;BME280;43467;50.890;5.982;2022-12-20T03:18:44;100048.63;;;12.56;71.30
36234;BME280;43467;50.890;5.982;2022-12-20T03:21:10;100037.56;;;12.48;71.28
36234;BME280;43467;50.890;5.982;2022-12-20T03:23:36;100041.50;;;12.57;71.22
36234;BME280;43467;50.890;5.982;2022-12-20T03:26:01;100034.66;;;12.53;71.30
36234;BME280;43467;50.890;5.982;2022-12-20T03:28:27;100033.81;;;12.52;71.11
36234;BME280;43467;50.890;5.982;2022-12-20T03:30:52;100033.06;;;12.50;71.59
36234;BME280;43467;50.890;5.982;2022-12-20T03:33:17;100034.22;;;12.61;71.53
36234;BME280;43467;50.890;5.982;2022-12-20T03:35:43;100028.59;;;12.51;71.29
36234;BME280;43467;50.890;5.982;2022-12-20T03:38:08;100038.50;;;12.47;71.51
36234;BME280;43467;50.890;5.982;2022-12-20T03:40:33;100041.78;;;12.52;71.32
36234;BME280;43467;50.890;5.982;2022-12-20T03:42:59;100042.56;;;12.54;71.13
36234;BME280;43467;50.890;5.982;2022-12-20T03:45:24;100041.44;;;12.58;71.60
36234;BME280;43467;50.890;5.982;2022-12-20T03:47:49;100035.03;;;12.47;71.69
36234;BME280;43467;50.890;5.982;2022-12-20T03:50:15;100045.34;;;12.51;71.45
36234;BME280;43467;50.890;5.982;2022-12-20T03:52:40;100037.06;;;12.57;71.53
36234;BME280;43467;50.890;5.982;2022-12-20T03:55:06;100024.66;;;12.58;71.78
36234;BME280;43467;50.890;5.982;2022-12-20T03:57:32;100022.66;;;12.62;71.57
36234;BME280;43467;50.890;5.982;2022-12-20T03:59:57;100030.28;;;12.52;72.17
36234;BME280;43467;50.890;5.982;2022-12-20T04:02:23;100025.34;;;12.46;72.41
36234;BME280;43467;50.890;5.982;2022-12-20T04:04:48;100021.56;;;12.50;72.28
36234;BME280;43467;50.890;5.982;2022-12-20T04:07:14;100018.47;;;12.57;72.22
36234;BME280;43467;50.890;5.982;2022-12-20T04:09:39;100018.28;;;12.61;71.43
36234;BME280;43467;50.890;5.982;2022-12-20T04:12:06;99994.91;;;12.51;71.57
36234;BME280;43467;50.890;5.982;2022-12-20T04:14:31;100003.13;;;12.63;70.82
36234;BME280;43467;50.890;5.982;2022-12-20T04:16:57;99991.19;;;12.70;70.79
36234;BME280;43467;50.890;5.982;2022-12-20T04:19:22;100002.00;;;12.67;70.26
36234;BME280;43467;50.890;5.982;2022-12-20T04:21:48;99995.72;;;12.68;69.98
36234;BME280;43467;50.890;5.982;2022-12-20T04:24:13;99984.34;;;12.66;69.82
36234;BME280;43467;50.890;5.982;2022-12-20T04:26:39;99975.06;;;12.73;69.48
36234;BME280;43467;50.890;5.982;2022-12-20T04:29:04;99980.38;;;12.73;69.06
36234;BME280;43467;50.890;5.982;2022-12-20T04:31:30;99979.72;;;12.69;69.37
36234;BME280;43467;50.890;5.982;2022-12-20T04:33:55;99990.34;;;12.69;68.90
36234;BME280;43467;50.890;5.982;2022-12-20T04:36:21;99975.34;;;12.68;68.83
36234;BME280;43467;50.890;5.982;2022-12-20T04:38:46;99977.84;;;12.71;68.83
36234;BME280;43467;50.890;5.982;2022-12-20T04:41:12;99975.34;;;12.68;68.90
36234;BME280;43467;50.890;5.982;2022-12-20T04:43:51;99958.66;;;12.66;68.56
36234;BME280;43467;50.890;5.982;2022-12-20T04:46:17;99960.78;;;12.75;68.24
36234;BME280;43467;50.890;5.982;2022-12-20T04:48:43;99965.38;;;12.72;68.27
36234;BME280;43467;50.890;5.982;2022-12-20T04:51:08;99960.06;;;12.72;68.13
36234;BME280;43467;50.890;5.982;2022-12-20T04:53:34;99956.22;;;12.77;68.03
36234;BME280;43467;50.890;5.982;2022-12-20T04:56:19;99953.94;;;12.71;67.87
36234;BME280;43467;50.890;5.982;2022-12-20T04:58:46;99952.03;;;12.73;67.98
36234;BME280;43467;50.890;5.982;2022-12-20T05:01:13;99943.56;;;12.67;68.03
36234;BME280;43467;50.890;5.982;2022-12-20T05:03:38;99941.00;;;12.65;68.01
36234;BME280;43467;50.890;5.982;2022-12-20T05:06:04;99952.66;;;12.63;68.29
36234;BME280;43467;50.890;5.982;2022-12-20T05:08:30;99955.13;;;12.66;67.88
36234;BME280;43467;50.890;5.982;2022-12-20T05:10:55;99952.41;;;12.67;67.76
36234;BME280;43467;50.890;5.982;2022-12-20T05:13:21;99946.03;;;12.70;67.75
36234;BME280;43467;50.890;5.982;2022-12-20T05:15:51;99952.41;;;12.67;67.67
36234;BME280;43467;50.890;5.982;2022-12-20T05:18:16;99958.19;;;12.74;67.60
36234;BME280;43467;50.890;5.982;2022-12-20T05:20:41;99940.47;;;12.74;67.30
36234;BME280;43467;50.890;5.982;2022-12-20T05:23:08;99950.56;;;12.83;67.21
36234;BME280;43467;50.890;5.982;2022-12-20T05:25:53;99950.72;;;12.80;66.86
36234;BME280;43467;50.890;5.982;2022-12-20T05:28:37;99945.59;;;12.77;67.12
36234;BME280;43467;50.890;5.982;2022-12-20T05:31:02;99947.78;;;12.85;67.06
36234;BME280;43467;50.890;5.982;2022-12-20T05:33:28;99945.31;;;12.82;66.81
36234;BME280;43467;50.890;5.982;2022-12-20T05:35:54;99940.09;;;12.80;67.08
36234;BME280;43467;50.890;5.982;2022-12-20T05:38:20;99944.19;;;12.86;66.44
36234;BME280;43467;50.890;5.982;2022-12-20T05:40:47;99934.41;;;12.86;66.77
36234;BME280;43467;50.890;5.982;2022-12-20T05:43:13;99948.72;;;12.84;66.47
36234;BME280;43467;50.890;5.982;2022-12-20T05:45:39;99935.28;;;12.87;66.71
36234;BME280;43467;50.890;5.982;2022-12-20T05:48:05;99932.91;;;12.82;66.57
36234;BME280;43467;50.890;5.982;2022-12-20T05:50:30;99933.91;;;12.80;66.24
36234;BME280;43467;50.890;5.982;2022-12-20T05:52:56;99936.56;;;12.80;66.48
36234;BME280;43467;50.890;5.982;2022-12-20T05:55:21;99938.22;;;12.82;66.43
36234;BME280;43467;50.890;5.982;2022-12-20T05:57:46;99926.19;;;12.91;66.11
36234;BME280;43467;50.890;5.982;2022-12-20T06:00:12;99914.78;;;12.89;66.12
36234;BME280;43467;50.890;5.982;2022-12-20T06:02:39;99928.72;;;12.92;66.21
36234;BME280;43467;50.890;5.982;2022-12-20T06:05:04;99925.22;;;12.92;65.86
36234;BME280;43467;50.890;5.982;2022-12-20T06:07:30;99909.84;;;12.83;65.87
36234;BME280;43467;50.890;5.982;2022-12-20T06:09:56;99917.16;;;12.93;65.78
36234;BME280;43467;50.890;5.982;2022-12-20T06:12:22;99911.84;;;12.93;65.74
36234;BME280;43467;50.890;5.982;2022-12-20T06:14:47;99914.69;;;12.90;65.53
36234;BME280;43467;50.890;5.982;2022-12-20T06:17:12;99903.19;;;12.90;65.75
36234;BME280;43467;50.890;5.982;2022-12-20T06:19:38;99901.28;;;12.92;65.78
36234;BME280;43467;50.890;5.982;2022-12-20T06:22:07;99898.81;;;12.89;65.64
36234;BME280;43467;50.890;5.982;2022-12-20T06:24:33;99894.28;;;12.91;65.52
36234;BME280;43467;50.890;5.982;2022-12-20T06:26:58;99879.94;;;12.93;65.55
36234;BME280;43467;50.890;5.982;2022-12-20T06:29:24;99883.47;;;12.94;65.36
36234;BME280;43467;50.890;5.982;2022-12-20T06:31:49;99872.19;;;12.90;65.41
36234;BME280;43467;50.890;5.982;2022-12-20T06:34:15;99881.94;;;12.90;65.63
36234;BME280;43467;50.890;5.982;2022-12-20T06:36:41;99883.94;;;13.00;65.38
36234;BME280;43467;50.890;5.982;2022-12-20T06:39:07;99894.28;;;12.91;65.45
36234;BME280;43467;50.890;5.982;2022-12-20T06:41:34;99892.22;;;12.96;65.26
36234;BME280;43467;50.890;5.982;2022-12-20T06:43:59;99911.91;;;12.92;65.07
36234;BME280;43467;50.890;5.982;2022-12-20T06:46:24;99894.19;;;12.92;65.36
36234;BME280;43467;50.890;5.982;2022-12-20T06:48:51;99883.81;;;12.88;65.49
36234;BME280;43467;50.890;5.982;2022-12-20T06:51:16;99879.94;;;12.93;65.13
36234;BME280;43467;50.890;5.982;2022-12-20T06:53:42;99883.56;;;12.92;65.46
36234;BME280;43467;50.890;5.982;2022-12-20T06:56:07;99872.66;;;12.97;65.26
36234;BME280;43467;50.890;5.982;2022-12-20T06:58:33;99861.44;;;12.92;65.17
36234;BME280;43467;50.890;5.982;2022-12-20T07:00:58;99857.44;;;12.85;65.59
36234;BME280;43467;50.890;5.982;2022-12-20T07:03:24;99866.88;;;12.90;65.42
36234;BME280;43467;50.890;5.982;2022-12-20T07:05:51;99852.91;;;12.87;65.54
36234;BME280;43467;50.890;5.982;2022-12-20T07:08:17;99858.22;;;12.87;65.50
36234;BME280;43467;50.890;5.982;2022-12-20T07:10:43;99871.41;;;12.88;65.59
36234;BME280;43467;50.890;5.982;2022-12-20T07:13:09;99866.75;;;12.92;65.70
36234;BME280;43467;50.890;5.982;2022-12-20T07:15:34;99863.69;;;12.84;65.80
36234;BME280;43467;50.890;5.982;2022-12-20T07:17:59;99881.56;;;12.82;66.14
36234;BME280;43467;50.890;5.982;2022-12-20T07:20:25;99877.75;;;12.86;65.70
36234;BME280;43467;50.890;5.982;2022-12-20T07:22:51;99873.38;;;12.85;65.69
36234;BME280;43467;50.890;5.982;2022-12-20T07:25:16;99871.69;;;12.84;65.98
36234;BME280;43467;50.890;5.982;2022-12-20T07:27:42;99865.53;;;12.83;65.75
36234;BME280;43467;50.890;5.982;2022-12-20T07:30:10;99861.81;;;12.86;65.74
36234;BME280;43467;50.890;5.982;2022-12-20T07:32:35;99879.69;;;12.98;65.66
36234;BME280;43467;50.890;5.982;2022-12-20T07:35:01;99878.63;;;13.00;65.27
36234;BME280;43467;50.890;5.982;2022-12-20T07:37:28;99889.16;;;13.02;65.21
36234;BME280;43467;50.890;5.982;2022-12-20T07:39:54;99874.34;;;12.98;65.61
36234;BME280;43467;50.890;5.982;2022-12-20T07:42:19;99875.31;;;12.97;65.53
36234;BME280;43467;50.890;5.982;2022-12-20T07:44:44;99885.53;;;12.89;65.70
36234;BME280;43467;50.890;5.982;2022-12-20T07:47:10;99884.53;;;12.91;65.36
36234;BME280;43467;50.890;5.982;2022-12-20T07:49:35;99875.56;;;12.92;65.53
36234;BME280;43467;50.890;5.982;2022-12-20T07:52:01;99879.22;;;12.91;65.89
36234;BME280;43467;50.890;5.982;2022-12-20T07:54:42;99879.88;;;12.95;64.99
36234;BME280;43467;50.890;5.982;2022-12-20T07:57:14;99867.25;;;12.98;65.33
36234;BME280;43467;50.890;5.982;2022-12-20T07:59:45;99878.75;;;12.99;65.23
36234;BME280;43467;50.890;5.982;2022-12-20T08:02:16;99870.75;;;12.99;65.12
36234;BME280;43467;50.890;5.982;2022-12-20T08:04:45;99864.88;;;12.94;64.83
36234;BME280;43467;50.890;5.982;2022-12-20T08:07:11;99873.41;;;12.99;64.94
36234;BME280;43467;50.890;5.982;2022-12-20T08:09:40;99880.16;;;13.04;65.04
36234;BME280;43467;50.890;5.982;2022-12-20T08:12:09;99886.97;;;13.09;64.90
36234;BME280;43467;50.890;5.982;2022-12-20T08:14:35;99877.31;;;13.08;64.54
36234;BME280;43467;50.890;5.982;2022-12-20T08:17:01;99878.34;;;13.05;64.59
36234;BME280;43467;50.890;5.982;2022-12-20T08:19:26;99877.31;;;13.08;64.67
36234;BME280;43467;50.890;5.982;2022-12-20T08:21:51;99887.72;;;13.12;64.33
36234;BME280;43467;50.890;5.982;2022-12-20T08:24:16;99885.59;;;13.17;64.37
36234;BME280;43467;50.890;5.982;2022-12-20T08:26:42;99879.25;;;13.20;64.24
36234;BME280;43467;50.890;5.982;2022-12-20T08:29:08;99889.31;;;13.15;64.14
36234;BME280;43467;50.890;5.982;2022-12-20T08:31:37;99886.94;;;13.10;64.30
36234;BME280;43467;50.890;5.982;2022-12-20T08:34:04;99896.44;;;13.14;64.20
36234;BME280;43467;50.890;5.982;2022-12-20T08:36:29;99895.28;;;13.18;64.15
36234;BME280;43467;50.890;5.982;2022-12-20T08:38:54;99898.03;;;13.17;64.34
36234;BME280;43467;50.890;5.982;2022-12-20T08:41:20;99897.75;;;13.21;64.49
36234;BME280;43467;50.890;5.982;2022-12-20T08:43:45;99882.19;;;13.15;64.15
36234;BME280;43467;50.890;5.982;2022-12-20T08:46:11;99891.28;;;13.25;64.43
36234;BME280;43467;50.890;5.982;2022-12-20T08:48:36;99885.59;;;13.17;64.36
36234;BME280;43467;50.890;5.982;2022-12-20T08:51:05;99896.31;;;13.30;64.92
36234;BME280;43467;50.890;5.982;2022-12-20T08:53:31;99897.38;;;13.27;64.83
36234;BME280;43467;50.890;5.982;2022-12-20T08:56:11;99895.88;;;13.23;65.22
36234;BME280;43467;50.890;5.982;2022-12-20T08:58:38;99901.56;;;13.31;65.41
36234;BME280;43467;50.890;5.982;2022-12-20T09:01:05;99894.72;;;13.27;66.04
36234;BME280;43467;50.890;5.982;2022-12-20T09:03:31;99877.25;;;13.23;66.02
36234;BME280;43467;50.890;5.982;2022-12-20T09:05:58;99882.66;;;13.22;66.49
36234;BME280;43467;50.890;5.982;2022-12-20T09:08:24;99878.66;;;13.29;66.54
36234;BME280;43467;50.890;5.982;2022-12-20T09:10:50;99869.28;;;13.23;66.51
36234;BME280;43467;50.890;5.982;2022-12-20T09:13:15;99870.81;;;13.27;66.17
36234;BME280;43467;50.890;5.982;2022-12-20T09:15:41;99869.53;;;13.33;66.68
36234;BME280;43467;50.890;5.982;2022-12-20T09:18:07;99867.84;;;13.32;66.26
36234;BME280;43467;50.890;5.982;2022-12-20T09:20:33;99863.19;;;13.35;66.51
36234;BME280;43467;50.890;5.982;2022-12-20T09:22:58;99863.06;;;13.37;66.13
36234;BME280;43467;50.890;5.982;2022-12-20T09:25:25;99867.09;;;13.44;66.12
36234;BME280;43467;50.890;5.982;2022-12-20T09:27:50;99861.94;;;13.41;65.78
36234;BME280;43467;50.890;5.982;2022-12-20T09:30:16;99865.44;;;13.41;65.67
36234;BME280;43467;50.890;5.982;2022-12-20T09:32:42;99878.47;;;13.46;65.67
36234;BME280;43467;50.890;5.982;2022-12-20T09:35:08;99875.81;;;13.46;65.87
36234;BME280;43467;50.890;5.982;2022-12-20T09:37:33;99865.06;;;13.47;65.57
36234;BME280;43467;50.890;5.982;2022-12-20T09:39:59;99857.66;;;13.53;65.35
36234;BME280;43467;50.890;5.982;2022-12-20T09:42:26;99855.19;;;13.49;65.23
36234;BME280;43467;50.890;5.982;2022-12-20T09:44:56;99857.19;;;13.60;65.25
36234;BME280;43467;50.890;5.982;2022-12-20T09:47:25;99861.63;;;13.60;64.94
36234;BME280;43467;50.890;5.982;2022-12-20T09:49:54;99858.22;;;13.58;64.83
36234;BME280;43467;50.890;5.982;2022-12-20T09:52:36;99858.22;;;13.58;64.70
36234;BME280;43467;50.890;5.982;2022-12-20T09:55:21;99845.88;;;13.57;65.16
36234;BME280;43467;50.890;5.982;2022-12-20T10:00:24;99852.81;;;13.59;65.65
36234;BME280;43467;50.890;5.982;2022-12-20T10:02:49;99848.78;;;13.66;65.55
36234;BME280;43467;50.890;5.982;2022-12-20T10:05:45;99854.22;;;13.65;66.26
36234;BME280;43467;50.890;5.982;2022-12-20T10:08:16;99837.13;;;13.69;66.20
36234;BME280;43467;50.890;5.982;2022-12-20T10:10:51;99844.13;;;13.70;66.85
36234;BME280;43467;50.890;5.982;2022-12-20T10:13:39;99844.53;;;13.64;66.77
36234;BME280;43467;50.890;5.982;2022-12-20T10:16:28;99830.81;;;13.70;66.82
36234;BME280;43467;50.890;5.982;2022-12-20T10:19:30;99828.72;;;13.75;66.81
36234;BME280;43467;50.890;5.982;2022-12-20T10:22:19;99833.84;;;13.78;67.16
36234;BME280;43467;50.890;5.982;2022-12-20T10:24:58;99830.22;;;13.79;67.31
36234;BME280;43467;50.890;5.982;2022-12-20T10:27:26;99819.84;;;13.88;66.67
36234;BME280;43467;50.890;5.982;2022-12-20T10:29:52;99822.38;;;13.90;66.94
36234;BME280;43467;50.890;5.982;2022-12-20T10:32:21;99817.81;;;13.92;66.92
36234;BME280;43467;50.890;5.982;2022-12-20T10:35:00;99826.19;;;13.86;67.07
36234;BME280;43467;50.890;5.982;2022-12-20T10:38:04;99826.03;;;13.89;67.02
36234;BME280;43467;50.890;5.982;2022-12-20T10:40:36;99821.34;;;13.92;66.95
36234;BME280;43467;50.890;5.982;2022-12-20T10:43:06;99807.19;;;13.92;66.92
36234;BME280;43467;50.890;5.982;2022-12-20T10:45:39;99803.66;;;13.91;66.61
36234;BME280;43467;50.890;5.982;2022-12-20T10:48:25;99798.78;;;13.98;66.92
36234;BME280;43467;50.890;5.982;2022-12-20T10:53:35;99798.59;;;14.01;66.34
36234;BME280;43467;50.890;5.982;2022-12-20T10:56:16;99801.56;;;13.96;65.90
36234;BME280;43467;50.890;5.982;2022-12-20T10:58:51;99797.81;;;13.99;66.19
36234;BME280;43467;50.890;5.982;2022-12-20T11:01:18;99788.03;;;14.00;66.01
36234;BME280;43467;50.890;5.982;2022-12-20T11:04:00;99792.28;;;14.02;66.02
36234;BME280;43467;50.890;5.982;2022-12-20T11:06:38;99804.09;;;13.98;66.23
36234;BME280;43467;50.890;5.982;2022-12-20T11:09:22;99779.63;;;13.93;66.52
36234;BME280;43467;50.890;5.982;2022-12-20T11:14:23;99811.22;;;13.85;66.93
36234;BME280;43467;50.890;5.982;2022-12-20T11:16:50;99807.91;;;13.94;66.88
36234;BME280;43467;50.890;5.982;2022-12-20T11:19:30;99806.25;;;13.93;67.01
36234;BME280;43467;50.890;5.982;2022-12-20T11:25:01;99808.00;;;13.80;67.51
36234;BME280;43467;50.890;5.982;2022-12-20T11:27:39;99798.84;;;13.84;67.32
36234;BME280;43467;50.890;5.982;2022-12-20T11:30:40;99794.13;;;13.75;68.10
36234;BME280;43467;50.890;5.982;2022-12-20T11:41:37;99796.03;;;13.46;72.90
36234;BME280;43467;50.890;5.982;2022-12-20T11:44:38;99799.38;;;13.35;75.43
36234;BME280;43467;50.890;5.982;2022-12-20T11:51:03;99786.38;;;13.02;77.75
36234;BME280;43467;50.890;5.982;2022-12-20T11:56:06;99785.06;;;12.95;78.34
36234;BME280;43467;50.890;5.982;2022-12-20T12:01:16;99791.97;;;12.84;79.08
36234;BME280;43467;50.890;5.982;2022-12-20T12:04:39;99782.97;;;12.86;79.02
36234;BME280;43467;50.890;5.982;2022-12-20T12:06:39;99780.03;;;12.77;79.04
36234;BME280;43467;50.890;5.982;2022-12-20T12:09:28;99775.38;;;12.80;79.79
36234;BME280;43467;50.890;5.982;2022-12-20T12:12:07;99768.28;;;12.67;80.05
36234;BME280;43467;50.890;5.982;2022-12-20T12:19:52;99767.78;;;12.60;80.11
36234;BME280;43467;50.890;5.982;2022-12-20T12:22:26;99762.84;;;12.68;79.78
36234;BME280;43467;50.890;5.982;2022-12-20T12:24:57;99761.16;;;12.81;79.26
36234;BME280;43467;50.890;5.982;2022-12-20T12:27:26;99752.44;;;12.79;78.06
36234;BME280;43467;50.890;5.982;2022-12-20T12:29:53;99750.25;;;13.00;77.42
36234;BME280;43467;50.890;5.982;2022-12-20T12:32:37;99741.00;;;13.05;77.58
36234;BME280;43467;50.890;5.982;2022-12-20T12:37:56;99740.91;;;13.07;75.88
36234;BME280;43467;50.890;5.982;2022-12-20T12:48:27;99739.59;;;13.14;74.14
36234;BME280;43467;50.890;5.982;2022-12-20T12:50:57;99751.38;;;13.10;75.16
36234;BME280;43467;50.890;5.982;2022-12-20T12:53:36;99739.97;;;13.08;74.12
36234;BME280;43467;50.890;5.982;2022-12-20T13:01:50;99749.28;;;13.15;72.79
36234;BME280;43467;50.890;5.982;2022-12-20T13:09:35;99733.69;;;13.09;72.03
36234;BME280;43467;50.890;5.982;2022-12-20T13:12:46;99754.03;;;13.10;72.05
36234;BME280;43467;50.890;5.982;2022-12-20T13:18:29;99743.41;;;13.10;72.50
36234;BME280;43467;50.890;5.982;2022-12-20T13:20:35;99744.72;;;13.03;73.77
36234;BME280;43467;50.890;5.982;2022-12-20T13:25:31;99746.06;;;12.96;73.95
36234;BME280;43467;50.890;5.982;2022-12-20T13:30:42;99754.03;;;12.96;74.73
36234;BME280;43467;50.890;5.982;2022-12-20T13:43:58;99738.38;;;12.77;76.92
36234;BME280;43467;50.890;5.982;2022-12-20T13:49:24;99737.16;;;12.83;77.56
36234;BME280;43467;50.890;5.982;2022-12-20T13:54:42;99739.69;;;12.84;77.03
36234;BME280;43467;50.890;5.982;2022-12-20T13:57:14;99729.19;;;12.83;76.10
36234;BME280;43467;50.890;5.982;2022-12-20T13:59:44;99733.63;;;12.82;76.19
36234;BME280;43467;50.890;5.982;2022-12-20T14:02:20;99733.53;;;12.84;76.87
36234;BME280;43467;50.890;5.982;2022-12-20T14:04:55;99732.56;;;12.85;76.29
36234;BME280;43467;50.890;5.982;2022-12-20T14:07:21;99735.63;;;12.79;76.67
36234;BME280;43467;50.890;5.982;2022-12-20T14:09:54;99720.34;;;12.68;76.62
36234;BME280;43467;50.890;5.982;2022-12-20T14:12:20;99724.91;;;12.80;76.40
36234;BME280;43467;50.890;5.982;2022-12-20T14:14:47;99720.44;;;12.81;76.10
36234;BME280;43467;50.890;5.982;2022-12-20T14:17:21;99713.25;;;12.83;76.45
36234;BME280;43467;50.890;5.982;2022-12-20T14:19:47;99723.88;;;12.83;76.01
36234;BME280;43467;50.890;5.982;2022-12-20T14:22:25;99722.25;;;12.80;76.14
36234;BME280;43467;50.890;5.982;2022-12-20T14:24:51;99724.91;;;12.80;75.54
36234;BME280;43467;50.890;5.982;2022-12-20T14:27:16;99723.66;;;12.86;75.48
36234;BME280;43467;50.890;5.982;2022-12-20T14:29:43;99713.03;;;12.86;75.53
36234;BME280;43467;50.890;5.982;2022-12-20T14:32:17;99711.31;;;12.85;75.72
36234;BME280;43467;50.890;5.982;2022-12-20T14:34:43;99715.91;;;12.83;76.04
36234;BME280;43467;50.890;5.982;2022-12-20T14:37:25;99706.22;;;12.96;76.30
36234;BME280;43467;50.890;5.982;2022-12-20T14:42:38;99706.50;;;12.91;77.04
36234;BME280;43467;50.890;5.982;2022-12-20T14:48:03;99702.78;;;12.80;76.55
36234;BME280;43467;50.890;5.982;2022-12-20T14:50:37;99688.75;;;12.64;77.27
36234;BME280;43467;50.890;5.982;2022-12-20T14:53:20;99689.13;;;12.72;78.18